Flight Track Log - Related Links

Times and Time Zones

All times are in EDT time to prevent confusion due to time zone crossing. See the AWI3688 flight status page for this flight to view local times or setup timezone preferences in your user account.

Time Position Orientation Groundspeed Altitude Reporting Facility
EDT Latitude Longitude Course Direction KTS MPH feet Rate Location/Type
Tue 12:11:30 PM 39.8833 -75.2000 100° East 141 162 700  Level Philadelphia TRACON
Tue 12:13:17 PM 39.8678 -75.0847 100° East 237 273 5,100 2,607 Climbing New York Center
Tue 12:14:18 PM 39.8519 -75.0053 105° East 254 292 8,000 2,852 Climbing New York Center
Tue 12:15:19 PM 39.8308 -74.9014 105° East 267 307 10,900 2,132 Climbing New York Center
Tue 12:16:19 PM 39.8094 -74.7892 104° East 289 333 12,300 1,475 Climbing New York Center
Tue 12:17:17 PM 39.8322 -74.6769 75° East 312 359 13,800 1,678 Climbing New York Center
Tue 12:18:17 PM 39.9139 -74.6003 36° Northeast 305 351 15,600 1,721 Climbing New York Center
Tue 12:19:19 PM 39.9981 -74.5128 39° Northeast 339 390 17,300 1,377 Climbing New York Center
Tue 12:20:19 PM 40.0861 -74.4308 35° Northeast 376 433 18,400 1,200 Climbing New York Center
Tue 12:21:19 PM 40.1742 -74.3431 37° Northeast 397 457 19,700 1,271 Climbing New York Center
Tue 12:22:17 PM 40.2644 -74.2553 37° Northeast 397 457 20,900 1,109 Climbing New York Center
Tue 12:23:18 PM 40.3644 -74.1786 30° Northeast 402 463 21,900 1,000 Climbing New York Center
Tue 12:24:17 PM 40.4667 -74.1072 28° Northeast 408 470 22,900 857 Climbing New York Center
Tue 12:25:17 PM 40.5689 -74.0275 31° Northeast 413 475 23,600 500 Climbing New York Center
Tue 12:26:17 PM 40.6731 -73.9533 28° Northeast 413 475 23,900 119 Climbing New York Center
Tue 12:28:39 PM 40.8775 -73.7578 36° Northeast 398 458 24,000  Climbing Boston Center
Tue 12:29:39 PM 40.9664 -73.6442 44° Northeast 398 458 23,900 -450 Descending Boston Center
Tue 12:30:39 PM 41.0583 -73.6183 12° North 366 421 23,100 -700 Descending Boston Center
Tue 12:31:39 PM 41.1669 -73.6092 North 366 421 22,500 -1,100 Descending Boston Center
Tue 12:32:39 PM 41.2775 -73.6003 North 379 436 20,900 -1,550 Descending Boston Center
Tue 12:33:39 PM 41.3964 -73.5883 North 405 466 19,400 -1,550 Descending Boston Center
Tue 12:34:39 PM 41.5047 -73.5794 North 401 461 17,800 -1,800 Descending Boston Center
Tue 12:35:39 PM 41.6175 -73.5703 North 377 434 15,800 -1,900 Descending Boston Center
Tue 12:36:39 PM 41.7114 -73.5608 North 371 427 14,000 -1,500 Descending Boston Center
Tue 12:37:39 PM 41.8239 -73.5517 North 366 421 12,800 -1,050 Descending Boston Center
Tue 12:38:39 PM 41.9156 -73.5447 North 372 428 11,900 -975 Descending Boston Center
Tue 12:38:59 PM 41.9636 -73.5403 North 374 430 11,500 -900 Descending Boston Center
Tue 12:39:39 PM 42.0261 -73.5356 North 364 419 11,000 -357 Descending Boston Center
Tue 12:40:23 PM 42.0972 -73.5283 North 339 390 11,000  Level Boston Center
Tue 12:40:39 PM 42.1178 -73.5372 342° North 343 395 11,000  Level Boston Center
Tue 12:41:18 PM 42.1739 -73.5633 341° North 310 357 11,000  Level Boston Center
Tue 12:41:39 PM 42.2008 -73.5778 338° Northwest 311 358 11,000 -1,377 Level Boston Center
Tue 12:42:19 PM 42.2528 -73.5986 343° North 296 341 9,600 -1,981 Descending Boston Center
Tue 12:43:25 PM 42.3314 -73.6419 338° Northwest 288 331 7,500 -1,983 Descending Boston Center
Tue 12:44:20 PM 42.4019 -73.6744 341° North 282 325 5,600 -1,770 Descending Boston Center
Tue 12:45:27 PM 42.4850 -73.7183 339° North 274 315 3,900 -1,240 Descending Boston Center
Tue 12:46:21 PM 42.5367 -73.7447 339° North 218 251 3,100 -893 Descending Boston Center
Tue 12:47:28 PM 42.5989 -73.7742 341° North 209 241 2,100 -541 Descending Boston Center
Tue 12:48:23 PM 42.6444 -73.7978 339° North 201 231 2,000 -397 Descending Boston Center
Tue 12:49:29 PM 42.6881 -73.8044 354° North 133 153 1,300 -709 Descending Boston Center
Tue 12:50:30 PM 42.7319 -73.8081 357° North 144 166 500 -787 Descending Boston Center
Tue 12:52:00 PM 42.7491 -73.8020 15° North  Level Estimated
Tue 12:59:00 PM 42.7491 -73.8020 304° West  Level Estimated
Tue 01:00:00 PM 42.7491 -73.8020 304° West  Level Estimated

Login

Don't have an account? Register now (free) for customized features, flight alerts, and more!